Grand Forks Air Force Base Grand Forks US
ICAO: KRDR
IATA: RDR
Category: Medium
Scheduled Services: No

Elevation: 913 ft
TransAlt. 18000 ft.

Airport Communications:
APP/DEP:118.1
ATIS:27.345
CLNC DEL:119.15
GND:119.15
PMSV METRO:34.35
COMD POST:31.1
PTD:37.22
RDO:122.2
RED RIVER TWR:124.9

KRDR Zoom In..

If you have problems with the map follow the link
https://www.worldairports.se/pages/airport.php?
ICAO=KRDR

Runways:

(A) RW 17 length 12351 ft width 150 ft
ILS 111.30 / hdg 174

(B) RW 35 length 12351 ft width 150 ft
ILS 109.90 / hdg 354

Location; KRDR
Day. 18 / Time. 06.56 Zulu
* Altimeter: 30.17
* Temperature: 04° c. 39.2°f.
* Wind from: 210° Speed 11 kn.
Dewpoint: -01° c.
Visibility: 10 Statute Miles.
Clouds: Clear (automated report).

KRDR 180656Z AUTO 21011KT 10SM CLR 04/M01 A3017 RMK AO2 SLP229 T00401012 $


Wind From 210°
Speed 11 kn.

 
 
jpsmedia.com for Web Design worldairports.se 2018   terms of use